Palmyra, VA (22963)

11:21 PM EDT on August 04, 2015 (GMT -0400)
Middle Fork Farm | | Change Station
CLOSE
Current Station
Personal Weather Station
Location: Palmyra, VA
Elevation: 404 ft
Nearby Weather Stations

Elev 404 ft 37.88 °N, 78.36 °W | Updated 0 second ago

Partly Cloudy
Partly Cloudy
75.0 °F
Feels Like 76 °F
N
3.4
Wind Variable Wind from NE
Gusts 3.4 mph

Today
High -- | Low -- °F
--% Chance of Precip.
Yesterday
High -- | Low -- °F
Precip. -- in
6:18 AM 8:19 PM
Waning Gibbous, 72% visible
Pressure 29.93 in
Visibility 10.0 miles
Clouds Clear
Heat Index 76 °F
Dew Point 68 °F
Humidity 80%
Rainfall 0.00 in
Snow Depth Not available.
UV 0 out of 12
Pollen 7.50 out of 12
Air Quality Not available.
Flu Activity Not available.
METAR KCHO 050253Z 02004KT 10SM CLR 24/19 A2996 RMK AO2 SLP135 T02440194 51020

More Conditions Fewer Conditions

Pressure 29.93 in
Visibility 10.0 miles
Clouds Clear
Heat Index 76 °F
Dew Point 68 °F
Humidity 80%
Rainfall 0.00 in
Snow Depth Not available.
UV 0 out of 12
Pollen 7.50 out of 12
Air Quality Not available.
Flu Activity Not available.
METAR KCHO 050253Z 02004KT 10SM CLR 24/19 A2996 RMK AO2 SLP135 T02440194 51020

More Conditions Fewer Conditions

10-Day Weather Forecast

×

Almanac

Astronomy

Aug. 04, 2015 Rise Set
Actual Time
Civil Twilight
Nautical Twilight
Astronomical Twilight
Moon
Length of Visible Light
Length of Day
Tomorrow will be .
, % of the Moon is Illuminated

Today's Extremes

State Highs State Lows

Community

WunderPhotos

Upload Photos

1,844,088 photos uploaded!

WunderBlogs® & News

Nearby

Air Quality

  Air Quality AQ Index Pollutant
Not available.

Snow Depth

Station Depth Elevation

Earthquake Activity

City Distance Mag. Time & Date
Minimum magnitude displayed is 2.5.

Coastal Water Temperatures

Place Temperature

Stations

Nearby Weather Stations

Station Location Temp. Windchill Dew Point Humidity Wind Precip. Elev Updated Type